Terminal Aerodrome Forecast
Issued by NWS

Home | Current Version | Previous Version | Text Only | Print | Product List | Glossary On
Versions: 1 2 3 4 5 6 7 8 9 10 11 12 13 14 15 16 17
000
FTUS41 KCAR 301759
TAFHUL
TAF
KHUL 301759Z 3018/3118 13006KT 1 1/2SM -SN OVC020
     FM302100 12006KT 1/2SM SN OVC007
     FM310800 33012G20KT 2SM -SN OVC015
     FM311100 34020G35KT 1SM -SN BLSN OVC020=

USA.gov is the U.S. government's official web portal to all federal, state and local government web resources and services.